sensor_id;sensor_type;location;lat;lon;timestamp;temperature;humidity
37158;DHT22;23050;51.776;22.638;2023-06-01T00:01:31;8.40;99.90
37158;DHT22;23050;51.776;22.638;2023-06-01T00:04:02;8.40;99.90
37158;DHT22;23050;51.776;22.638;2023-06-01T00:06:27;8.30;99.90
37158;DHT22;23050;51.776;22.638;2023-06-01T00:08:57;8.30;99.90
37158;DHT22;23050;51.776;22.638;2023-06-01T00:11:22;8.30;99.90
37158;DHT22;23050;51.776;22.638;2023-06-01T00:13:48;8.20;99.90
37158;DHT22;23050;51.776;22.638;2023-06-01T00:16:14;8.30;99.90
37158;DHT22;23050;51.776;22.638;2023-06-01T00:18:39;8.30;99.90
37158;DHT22;23050;51.776;22.638;2023-06-01T00:21:05;8.20;99.90
37158;DHT22;23050;51.776;22.638;2023-06-01T00:23:31;8.30;99.90
37158;DHT22;23050;51.776;22.638;2023-06-01T00:25:57;8.30;99.90
37158;DHT22;23050;51.776;22.638;2023-06-01T00:28:22;8.20;99.90
37158;DHT22;23050;51.776;22.638;2023-06-01T00:30:48;8.30;99.90
37158;DHT22;23050;51.776;22.638;2023-06-01T00:33:13;8.30;99.90
37158;DHT22;23050;51.776;22.638;2023-06-01T00:35:39;8.30;99.90
37158;DHT22;23050;51.776;22.638;2023-06-01T00:38:04;8.30;99.90
37158;DHT22;23050;51.776;22.638;2023-06-01T00:40:32;8.30;99.90
37158;DHT22;23050;51.776;22.638;2023-06-01T00:42:58;8.20;99.90
37158;DHT22;23050;51.776;22.638;2023-06-01T00:45:23;8.20;99.90
37158;DHT22;23050;51.776;22.638;2023-06-01T00:47:48;8.10;99.90
37158;DHT22;23050;51.776;22.638;2023-06-01T00:50:14;8.10;99.90
37158;DHT22;23050;51.776;22.638;2023-06-01T00:52:40;7.90;99.90
37158;DHT22;23050;51.776;22.638;2023-06-01T00:55:05;8.00;99.90
37158;DHT22;23050;51.776;22.638;2023-06-01T00:57:31;8.00;99.90
37158;DHT22;23050;51.776;22.638;2023-06-01T00:59:57;7.90;99.90
37158;DHT22;23050;51.776;22.638;2023-06-01T01:02:22;8.00;99.90
37158;DHT22;23050;51.776;22.638;2023-06-01T01:04:48;8.00;99.90
37158;DHT22;23050;51.776;22.638;2023-06-01T01:12:39;7.90;99.90
37158;DHT22;23050;51.776;22.638;2023-06-01T01:15:12;7.90;99.90
37158;DHT22;23050;51.776;22.638;2023-06-01T01:17:44;7.80;99.90
37158;DHT22;23050;51.776;22.638;2023-06-01T01:20:14;7.80;99.90
37158;DHT22;23050;51.776;22.638;2023-06-01T01:28:00;7.60;99.90
37158;DHT22;23050;51.776;22.638;2023-06-01T01:30:28;7.60;99.90
37158;DHT22;23050;51.776;22.638;2023-06-01T01:32:54;7.50;99.90
37158;DHT22;23050;51.776;22.638;2023-06-01T01:35:20;7.50;99.90
37158;DHT22;23050;51.776;22.638;2023-06-01T01:37:50;7.50;99.90
37158;DHT22;23050;51.776;22.638;2023-06-01T01:40:16;7.40;99.90
37158;DHT22;23050;51.776;22.638;2023-06-01T01:42:42;7.40;99.90
37158;DHT22;23050;51.776;22.638;2023-06-01T01:45:07;7.30;99.90
37158;DHT22;23050;51.776;22.638;2023-06-01T01:47:34;7.30;99.90
37158;DHT22;23050;51.776;22.638;2023-06-01T01:50:05;7.30;99.90
37158;DHT22;23050;51.776;22.638;2023-06-01T01:52:32;7.20;99.90
37158;DHT22;23050;51.776;22.638;2023-06-01T01:54:58;7.20;99.90
37158;DHT22;23050;51.776;22.638;2023-06-01T01:57:26;7.20;99.90
37158;DHT22;23050;51.776;22.638;2023-06-01T01:59:52;7.20;99.90
37158;DHT22;23050;51.776;22.638;2023-06-01T02:02:18;7.20;99.90
37158;DHT22;23050;51.776;22.638;2023-06-01T02:04:44;7.10;99.90
37158;DHT22;23050;51.776;22.638;2023-06-01T02:07:11;7.10;99.90
37158;DHT22;23050;51.776;22.638;2023-06-01T02:09:37;7.00;99.90
37158;DHT22;23050;51.776;22.638;2023-06-01T02:12:03;7.00;99.90
37158;DHT22;23050;51.776;22.638;2023-06-01T02:14:28;7.00;99.90
37158;DHT22;23050;51.776;22.638;2023-06-01T02:16:54;6.90;99.90
37158;DHT22;23050;51.776;22.638;2023-06-01T02:19:20;6.90;99.90
37158;DHT22;23050;51.776;22.638;2023-06-01T02:21:45;6.90;99.90
37158;DHT22;23050;51.776;22.638;2023-06-01T02:24:11;7.00;99.90
37158;DHT22;23050;51.776;22.638;2023-06-01T02:26:36;7.00;99.90
37158;DHT22;23050;51.776;22.638;2023-06-01T02:29:02;7.00;99.90
37158;DHT22;23050;51.776;22.638;2023-06-01T02:31:30;7.00;99.90
37158;DHT22;23050;51.776;22.638;2023-06-01T02:33:56;7.00;99.90
37158;DHT22;23050;51.776;22.638;2023-06-01T02:36:21;7.00;99.90
37158;DHT22;23050;51.776;22.638;2023-06-01T02:38:48;7.10;99.90
37158;DHT22;23050;51.776;22.638;2023-06-01T02:41:13;7.10;99.90
37158;DHT22;23050;51.776;22.638;2023-06-01T02:43:39;7.20;99.90
37158;DHT22;23050;51.776;22.638;2023-06-01T02:46:05;7.30;99.90
37158;DHT22;23050;51.776;22.638;2023-06-01T02:48:31;7.40;99.90
37158;DHT22;23050;51.776;22.638;2023-06-01T02:50:56;7.50;99.90
37158;DHT22;23050;51.776;22.638;2023-06-01T02:53:21;7.60;99.90
37158;DHT22;23050;51.776;22.638;2023-06-01T02:55:47;7.60;99.90
37158;DHT22;23050;51.776;22.638;2023-06-01T02:58:12;7.70;99.90
37158;DHT22;23050;51.776;22.638;2023-06-01T03:00:42;7.80;99.90
37158;DHT22;23050;51.776;22.638;2023-06-01T03:03:07;7.80;99.90
37158;DHT22;23050;51.776;22.638;2023-06-01T03:05:33;7.90;99.90
37158;DHT22;23050;51.776;22.638;2023-06-01T03:08:00;7.90;99.90
37158;DHT22;23050;51.776;22.638;2023-06-01T03:10:26;8.00;99.90
37158;DHT22;23050;51.776;22.638;2023-06-01T03:12:51;8.10;99.90
37158;DHT22;23050;51.776;22.638;2023-06-01T03:15:17;8.10;99.90
37158;DHT22;23050;51.776;22.638;2023-06-01T03:17:43;8.20;99.90
37158;DHT22;23050;51.776;22.638;2023-06-01T03:20:08;8.30;99.90
37158;DHT22;23050;51.776;22.638;2023-06-01T03:22:40;8.30;99.90
37158;DHT22;23050;51.776;22.638;2023-06-01T03:25:06;8.40;99.90
37158;DHT22;23050;51.776;22.638;2023-06-01T03:27:32;8.50;99.90
37158;DHT22;23050;51.776;22.638;2023-06-01T03:29:57;8.60;99.90
37158;DHT22;23050;51.776;22.638;2023-06-01T03:32:23;8.70;99.90
37158;DHT22;23050;51.776;22.638;2023-06-01T03:34:48;8.70;99.90
37158;DHT22;23050;51.776;22.638;2023-06-01T03:37:14;8.90;99.90
37158;DHT22;23050;51.776;22.638;2023-06-01T03:39:39;8.90;99.90
37158;DHT22;23050;51.776;22.638;2023-06-01T03:42:05;9.00;99.90
37158;DHT22;23050;51.776;22.638;2023-06-01T03:44:32;9.00;99.90
37158;DHT22;23050;51.776;22.638;2023-06-01T03:46:57;9.20;99.90
37158;DHT22;23050;51.776;22.638;2023-06-01T03:49:23;9.20;99.90
37158;DHT22;23050;51.776;22.638;2023-06-01T03:51:48;9.30;99.90
37158;DHT22;23050;51.776;22.638;2023-06-01T03:54:14;9.30;99.90
37158;DHT22;23050;51.776;22.638;2023-06-01T03:56:39;9.40;99.90
37158;DHT22;23050;51.776;22.638;2023-06-01T03:59:05;9.40;99.90
37158;DHT22;23050;51.776;22.638;2023-06-01T04:01:32;9.50;99.90
37158;DHT22;23050;51.776;22.638;2023-06-01T04:03:58;9.60;99.90
37158;DHT22;23050;51.776;22.638;2023-06-01T04:06:24;9.70;99.90
37158;DHT22;23050;51.776;22.638;2023-06-01T04:08:50;9.70;99.90
37158;DHT22;23050;51.776;22.638;2023-06-01T04:11:20;9.80;99.90
37158;DHT22;23050;51.776;22.638;2023-06-01T04:13:46;9.90;99.90
37158;DHT22;23050;51.776;22.638;2023-06-01T04:16:11;10.00;99.90
37158;DHT22;23050;51.776;22.638;2023-06-01T04:18:37;10.20;99.90
37158;DHT22;23050;51.776;22.638;2023-06-01T04:21:02;10.30;99.90
37158;DHT22;23050;51.776;22.638;2023-06-01T04:23:28;10.40;99.90
37158;DHT22;23050;51.776;22.638;2023-06-01T04:25:53;10.60;99.90
37158;DHT22;23050;51.776;22.638;2023-06-01T04:28:24;10.70;99.90
37158;DHT22;23050;51.776;22.638;2023-06-01T04:30:49;10.80;99.90
37158;DHT22;23050;51.776;22.638;2023-06-01T04:33:16;10.90;99.90
37158;DHT22;23050;51.776;22.638;2023-06-01T04:35:42;11.10;99.90
37158;DHT22;23050;51.776;22.638;2023-06-01T04:38:08;11.30;99.90
37158;DHT22;23050;51.776;22.638;2023-06-01T04:40:34;11.30;99.90
37158;DHT22;23050;51.776;22.638;2023-06-01T04:42:59;11.60;99.90
37158;DHT22;23050;51.776;22.638;2023-06-01T04:45:28;11.80;99.90
37158;DHT22;23050;51.776;22.638;2023-06-01T04:47:59;11.90;99.90
37158;DHT22;23050;51.776;22.638;2023-06-01T04:50:24;12.20;99.90
37158;DHT22;23050;51.776;22.638;2023-06-01T04:52:50;12.40;99.90
37158;DHT22;23050;51.776;22.638;2023-06-01T04:55:16;12.50;99.90
37158;DHT22;23050;51.776;22.638;2023-06-01T04:57:42;12.80;99.90
37158;DHT22;23050;51.776;22.638;2023-06-01T05:00:08;12.90;99.90
37158;DHT22;23050;51.776;22.638;2023-06-01T05:02:41;13.10;99.90
37158;DHT22;23050;51.776;22.638;2023-06-01T05:05:09;13.30;99.90
37158;DHT22;23050;51.776;22.638;2023-06-01T05:07:35;13.40;99.90
37158;DHT22;23050;51.776;22.638;2023-06-01T05:10:01;13.60;99.90
37158;DHT22;23050;51.776;22.638;2023-06-01T05:12:31;13.80;99.90
37158;DHT22;23050;51.776;22.638;2023-06-01T05:14:56;14.00;99.90
37158;DHT22;23050;51.776;22.638;2023-06-01T05:17:22;14.20;99.90
37158;DHT22;23050;51.776;22.638;2023-06-01T05:19:47;14.50;98.60
37158;DHT22;23050;51.776;22.638;2023-06-01T05:22:13;14.80;93.90
37158;DHT22;23050;51.776;22.638;2023-06-01T05:24:38;15.10;88.20
37158;DHT22;23050;51.776;22.638;2023-06-01T05:27:04;15.30;83.10
37158;DHT22;23050;51.776;22.638;2023-06-01T05:29:30;15.80;78.00
37158;DHT22;23050;51.776;22.638;2023-06-01T05:31:55;16.70;42.00
37158;DHT22;23050;51.776;22.638;2023-06-01T05:34:21;18.00;1.00
37158;DHT22;23050;51.776;22.638;2023-06-01T05:36:47;19.30;1.00
37158;DHT22;23050;51.776;22.638;2023-06-01T05:39:14;19.70;1.00
37158;DHT22;23050;51.776;22.638;2023-06-01T05:41:40;20.10;1.00
37158;DHT22;23050;51.776;22.638;2023-06-01T05:44:05;20.50;1.00
37158;DHT22;23050;51.776;22.638;2023-06-01T05:46:31;20.40;1.00
37158;DHT22;23050;51.776;22.638;2023-06-01T05:48:57;20.90;1.00
37158;DHT22;23050;51.776;22.638;2023-06-01T05:51:22;21.40;1.00
37158;DHT22;23050;51.776;22.638;2023-06-01T05:53:48;21.80;1.00
37158;DHT22;23050;51.776;22.638;2023-06-01T05:56:13;22.40;1.00
37158;DHT22;23050;51.776;22.638;2023-06-01T05:58:38;23.00;1.00
37158;DHT22;23050;51.776;22.638;2023-06-01T06:01:04;23.50;1.00
37158;DHT22;23050;51.776;22.638;2023-06-01T06:03:30;23.70;1.00
37158;DHT22;23050;51.776;22.638;2023-06-01T06:05:56;24.20;1.00
37158;DHT22;23050;51.776;22.638;2023-06-01T06:08:21;24.60;1.00
37158;DHT22;23050;51.776;22.638;2023-06-01T06:10:47;24.40;1.00
37158;DHT22;23050;51.776;22.638;2023-06-01T06:13:13;24.60;1.00
37158;DHT22;23050;51.776;22.638;2023-06-01T06:15:39;24.50;1.00
37158;DHT22;23050;51.776;22.638;2023-06-01T06:18:04;24.10;1.00
37158;DHT22;23050;51.776;22.638;2023-06-01T06:20:31;24.10;1.00
37158;DHT22;23050;51.776;22.638;2023-06-01T06:22:56;23.90;1.00
37158;DHT22;23050;51.776;22.638;2023-06-01T06:25:21;24.80;1.00
37158;DHT22;23050;51.776;22.638;2023-06-01T06:27:50;25.20;1.00
37158;DHT22;23050;51.776;22.638;2023-06-01T06:30:18;25.40;1.00
37158;DHT22;23050;51.776;22.638;2023-06-01T06:32:44;25.40;1.00
37158;DHT22;23050;51.776;22.638;2023-06-01T06:35:09;25.90;1.00
37158;DHT22;23050;51.776;22.638;2023-06-01T06:37:41;25.50;1.00
37158;DHT22;23050;51.776;22.638;2023-06-01T06:40:07;25.90;1.00
37158;DHT22;23050;51.776;22.638;2023-06-01T06:42:33;25.90;1.00
37158;DHT22;23050;51.776;22.638;2023-06-01T06:44:58;26.00;1.00
37158;DHT22;23050;51.776;22.638;2023-06-01T06:47:24;26.10;1.00
37158;DHT22;23050;51.776;22.638;2023-06-01T06:49:50;25.70;1.00
37158;DHT22;23050;51.776;22.638;2023-06-01T06:52:16;25.70;1.00
37158;DHT22;23050;51.776;22.638;2023-06-01T06:54:42;25.60;1.00
37158;DHT22;23050;51.776;22.638;2023-06-01T06:57:08;25.30;1.00
37158;DHT22;23050;51.776;22.638;2023-06-01T06:59:33;25.30;1.00
37158;DHT22;23050;51.776;22.638;2023-06-01T07:01:59;26.10;1.00
37158;DHT22;23050;51.776;22.638;2023-06-01T07:04:27;26.40;1.00
37158;DHT22;23050;51.776;22.638;2023-06-01T07:06:52;25.40;1.00
37158;DHT22;23050;51.776;22.638;2023-06-01T07:09:18;24.90;1.00
37158;DHT22;23050;51.776;22.638;2023-06-01T07:11:44;24.90;1.00
37158;DHT22;23050;51.776;22.638;2023-06-01T07:14:10;25.00;1.00
37158;DHT22;23050;51.776;22.638;2023-06-01T07:16:36;25.50;1.00
37158;DHT22;23050;51.776;22.638;2023-06-01T07:19:01;25.70;1.00
37158;DHT22;23050;51.776;22.638;2023-06-01T07:21:27;26.40;1.00
37158;DHT22;23050;51.776;22.638;2023-06-01T07:23:52;26.30;1.00
37158;DHT22;23050;51.776;22.638;2023-06-01T07:26:18;26.20;1.00
37158;DHT22;23050;51.776;22.638;2023-06-01T07:28:43;26.50;1.00
37158;DHT22;23050;51.776;22.638;2023-06-01T07:31:09;27.20;1.00
37158;DHT22;23050;51.776;22.638;2023-06-01T07:33:35;28.10;1.00
37158;DHT22;23050;51.776;22.638;2023-06-01T07:36:03;28.20;1.00
37158;DHT22;23050;51.776;22.638;2023-06-01T07:38:29;28.30;1.00
37158;DHT22;23050;51.776;22.638;2023-06-01T07:40:55;28.90;1.00
37158;DHT22;23050;51.776;22.638;2023-06-01T07:43:20;28.90;1.00
37158;DHT22;23050;51.776;22.638;2023-06-01T07:45:46;28.70;1.00
37158;DHT22;23050;51.776;22.638;2023-06-01T07:48:11;28.20;1.00
37158;DHT22;23050;51.776;22.638;2023-06-01T07:50:37;27.90;1.00
37158;DHT22;23050;51.776;22.638;2023-06-01T07:53:02;27.80;1.00
37158;DHT22;23050;51.776;22.638;2023-06-01T07:55:28;27.80;1.00
37158;DHT22;23050;51.776;22.638;2023-06-01T07:57:53;27.20;1.00
37158;DHT22;23050;51.776;22.638;2023-06-01T08:00:19;27.70;1.00
37158;DHT22;23050;51.776;22.638;2023-06-01T08:02:45;27.60;1.00
37158;DHT22;23050;51.776;22.638;2023-06-01T08:05:10;27.90;1.00
37158;DHT22;23050;51.776;22.638;2023-06-01T08:07:37;28.30;1.00
37158;DHT22;23050;51.776;22.638;2023-06-01T08:10:06;28.20;1.00
37158;DHT22;23050;51.776;22.638;2023-06-01T08:12:33;29.20;1.00
37158;DHT22;23050;51.776;22.638;2023-06-01T08:14:58;29.50;1.00
37158;DHT22;23050;51.776;22.638;2023-06-01T08:17:24;29.30;1.00
37158;DHT22;23050;51.776;22.638;2023-06-01T08:19:49;30.00;1.00
37158;DHT22;23050;51.776;22.638;2023-06-01T08:22:16;29.00;1.00
37158;DHT22;23050;51.776;22.638;2023-06-01T08:24:41;28.20;1.00
37158;DHT22;23050;51.776;22.638;2023-06-01T08:27:20;28.70;1.00
37158;DHT22;23050;51.776;22.638;2023-06-01T08:29:46;28.90;1.00
37158;DHT22;23050;51.776;22.638;2023-06-01T08:32:12;28.40;1.00
37158;DHT22;23050;51.776;22.638;2023-06-01T08:34:38;28.50;1.00
37158;DHT22;23050;51.776;22.638;2023-06-01T08:37:04;28.20;1.00
37158;DHT22;23050;51.776;22.638;2023-06-01T08:39:30;28.20;1.00
37158;DHT22;23050;51.776;22.638;2023-06-01T08:41:58;28.50;1.00
37158;DHT22;23050;51.776;22.638;2023-06-01T08:44:27;28.50;1.00
37158;DHT22;23050;51.776;22.638;2023-06-01T08:46:55;28.10;1.00
37158;DHT22;23050;51.776;22.638;2023-06-01T08:49:21;27.80;1.00
37158;DHT22;23050;51.776;22.638;2023-06-01T08:51:48;28.70;1.00
37158;DHT22;23050;51.776;22.638;2023-06-01T08:54:14;29.40;1.00
37158;DHT22;23050;51.776;22.638;2023-06-01T08:56:40;30.20;1.00
37158;DHT22;23050;51.776;22.638;2023-06-01T08:59:08;30.70;1.00
37158;DHT22;23050;51.776;22.638;2023-06-01T09:01:34;31.10;1.00
37158;DHT22;23050;51.776;22.638;2023-06-01T09:04:00;30.20;1.00
37158;DHT22;23050;51.776;22.638;2023-06-01T09:06:26;30.60;1.00
37158;DHT22;23050;51.776;22.638;2023-06-01T09:08:51;30.90;1.00
37158;DHT22;23050;51.776;22.638;2023-06-01T09:11:17;29.90;1.00
37158;DHT22;23050;51.776;22.638;2023-06-01T09:13:42;29.30;1.00
37158;DHT22;23050;51.776;22.638;2023-06-01T09:16:08;28.80;1.00
37158;DHT22;23050;51.776;22.638;2023-06-01T09:18:33;28.70;1.00
37158;DHT22;23050;51.776;22.638;2023-06-01T09:21:12;28.40;1.00
37158;DHT22;23050;51.776;22.638;2023-06-01T09:23:37;28.60;1.00
37158;DHT22;23050;51.776;22.638;2023-06-01T09:26:07;28.90;1.00
37158;DHT22;23050;51.776;22.638;2023-06-01T09:28:51;30.00;1.00
37158;DHT22;23050;51.776;22.638;2023-06-01T09:34:02;29.80;1.00
37158;DHT22;23050;51.776;22.638;2023-06-01T09:36:27;29.70;1.00
37158;DHT22;23050;51.776;22.638;2023-06-01T09:39:03;29.80;1.00
37158;DHT22;23050;51.776;22.638;2023-06-01T09:44:10;30.10;1.00
37158;DHT22;23050;51.776;22.638;2023-06-01T09:46:48;29.70;1.00
37158;DHT22;23050;51.776;22.638;2023-06-01T09:49:21;28.90;1.00
37158;DHT22;23050;51.776;22.638;2023-06-01T09:51:47;29.80;1.00
37158;DHT22;23050;51.776;22.638;2023-06-01T09:54:21;30.10;1.00
37158;DHT22;23050;51.776;22.638;2023-06-01T09:56:46;29.80;1.00
37158;DHT22;23050;51.776;22.638;2023-06-01T09:59:12;29.60;1.00
37158;DHT22;23050;51.776;22.638;2023-06-01T10:01:38;29.40;1.00
37158;DHT22;23050;51.776;22.638;2023-06-01T10:04:03;27.90;1.00
37158;DHT22;23050;51.776;22.638;2023-06-01T10:06:31;27.10;1.00
37158;DHT22;23050;51.776;22.638;2023-06-01T10:08:59;27.20;1.00
37158;DHT22;23050;51.776;22.638;2023-06-01T10:11:25;27.70;1.00
37158;DHT22;23050;51.776;22.638;2023-06-01T10:13:52;28.30;1.00
37158;DHT22;23050;51.776;22.638;2023-06-01T10:16:36;28.60;1.00
37158;DHT22;23050;51.776;22.638;2023-06-01T10:19:02;27.90;1.00
37158;DHT22;23050;51.776;22.638;2023-06-01T10:21:28;28.20;1.00
37158;DHT22;23050;51.776;22.638;2023-06-01T10:23:54;28.20;1.00
37158;DHT22;23050;51.776;22.638;2023-06-01T10:26:20;28.60;1.00
37158;DHT22;23050;51.776;22.638;2023-06-01T10:28:46;28.60;1.00
37158;DHT22;23050;51.776;22.638;2023-06-01T10:33:56;28.80;1.00
37158;DHT22;23050;51.776;22.638;2023-06-01T10:36:23;28.20;1.00
37158;DHT22;23050;51.776;22.638;2023-06-01T10:38:48;27.50;1.00
37158;DHT22;23050;51.776;22.638;2023-06-01T10:41:27;27.60;1.00
37158;DHT22;23050;51.776;22.638;2023-06-01T10:43:56;27.30;1.00
37158;DHT22;23050;51.776;22.638;2023-06-01T10:46:33;27.40;1.00
37158;DHT22;23050;51.776;22.638;2023-06-01T10:48:58;27.60;1.00
37158;DHT22;23050;51.776;22.638;2023-06-01T10:51:24;27.80;1.00
37158;DHT22;23050;51.776;22.638;2023-06-01T10:53:50;28.20;1.00
37158;DHT22;23050;51.776;22.638;2023-06-01T11:01:35;27.60;1.00
37158;DHT22;23050;51.776;22.638;2023-06-01T11:04:01;27.60;1.00
37158;DHT22;23050;51.776;22.638;2023-06-01T11:06:31;28.00;1.00
37158;DHT22;23050;51.776;22.638;2023-06-01T11:09:02;27.80;1.00
37158;DHT22;23050;51.776;22.638;2023-06-01T11:14:18;27.40;1.00
37158;DHT22;23050;51.776;22.638;2023-06-01T11:16:44;27.30;1.00
37158;DHT22;23050;51.776;22.638;2023-06-01T11:19:09;27.10;1.00
37158;DHT22;23050;51.776;22.638;2023-06-01T11:21:37;27.00;1.00
37158;DHT22;23050;51.776;22.638;2023-06-01T11:24:06;27.30;1.00
37158;DHT22;23050;51.776;22.638;2023-06-01T11:26:34;27.40;1.00
37158;DHT22;23050;51.776;22.638;2023-06-01T11:29:42;27.50;1.00
37158;DHT22;23050;51.776;22.638;2023-06-01T11:31:55;27.30;1.00
37158;DHT22;23050;51.776;22.638;2023-06-01T11:34:34;27.10;1.00
37158;DHT22;23050;51.776;22.638;2023-06-01T11:37:02;27.10;1.00
37158;DHT22;23050;51.776;22.638;2023-06-01T11:39:28;27.40;1.00
37158;DHT22;23050;51.776;22.638;2023-06-01T11:44:38;27.80;1.00
37158;DHT22;23050;51.776;22.638;2023-06-01T11:47:04;27.90;1.00
37158;DHT22;23050;51.776;22.638;2023-06-01T11:49:39;28.00;1.00
37158;DHT22;23050;51.776;22.638;2023-06-01T11:52:07;27.70;1.00
37158;DHT22;23050;51.776;22.638;2023-06-01T11:54:33;27.20;1.00
37158;DHT22;23050;51.776;22.638;2023-06-01T11:56:59;27.00;1.00
37158;DHT22;23050;51.776;22.638;2023-06-01T11:59:27;27.10;1.00
37158;DHT22;23050;51.776;22.638;2023-06-01T12:01:53;27.20;1.00
37158;DHT22;23050;51.776;22.638;2023-06-01T12:04:20;27.30;1.00
37158;DHT22;23050;51.776;22.638;2023-06-01T12:06:46;27.50;1.00
37158;DHT22;23050;51.776;22.638;2023-06-01T12:09:12;27.80;1.00
37158;DHT22;23050;51.776;22.638;2023-06-01T12:11:38;28.20;1.00
37158;DHT22;23050;51.776;22.638;2023-06-01T12:14:04;28.40;1.00
37158;DHT22;23050;51.776;22.638;2023-06-01T12:19:15;28.10;1.00
37158;DHT22;23050;51.776;22.638;2023-06-01T12:21:46;27.80;1.00
37158;DHT22;23050;51.776;22.638;2023-06-01T12:24:11;27.70;1.00
37158;DHT22;23050;51.776;22.638;2023-06-01T12:26:37;27.50;1.00
37158;DHT22;23050;51.776;22.638;2023-06-01T12:29:03;27.50;1.00
37158;DHT22;23050;51.776;22.638;2023-06-01T12:31:29;27.20;1.00
37158;DHT22;23050;51.776;22.638;2023-06-01T12:33:54;26.90;1.00
37158;DHT22;23050;51.776;22.638;2023-06-01T12:36:33;26.80;1.00
37158;DHT22;23050;51.776;22.638;2023-06-01T12:39:00;26.90;1.00
37158;DHT22;23050;51.776;22.638;2023-06-01T12:41:26;27.30;1.00
37158;DHT22;23050;51.776;22.638;2023-06-01T12:43:52;27.80;1.00
37158;DHT22;23050;51.776;22.638;2023-06-01T12:46:20;28.10;1.00
37158;DHT22;23050;51.776;22.638;2023-06-01T12:48:46;28.40;1.00
37158;DHT22;23050;51.776;22.638;2023-06-01T12:51:12;28.60;1.00
37158;DHT22;23050;51.776;22.638;2023-06-01T12:53:45;28.70;1.00
37158;DHT22;23050;51.776;22.638;2023-06-01T12:56:11;28.40;1.00
37158;DHT22;23050;51.776;22.638;2023-06-01T12:58:36;28.60;1.00
37158;DHT22;23050;51.776;22.638;2023-06-01T13:01:02;28.40;1.00
37158;DHT22;23050;51.776;22.638;2023-06-01T13:03:28;28.50;1.00
37158;DHT22;23050;51.776;22.638;2023-06-01T13:05:54;28.30;1.00
37158;DHT22;23050;51.776;22.638;2023-06-01T13:08:20;28.00;1.00
37158;DHT22;23050;51.776;22.638;2023-06-01T13:10:45;28.20;1.00
37158;DHT22;23050;51.776;22.638;2023-06-01T13:13:11;28.30;1.00
37158;DHT22;23050;51.776;22.638;2023-06-01T13:15:41;27.90;1.00
37158;DHT22;23050;51.776;22.638;2023-06-01T13:18:06;27.70;1.00
37158;DHT22;23050;51.776;22.638;2023-06-01T13:20:32;27.80;1.00
37158;DHT22;23050;51.776;22.638;2023-06-01T13:22:57;27.70;1.00
37158;DHT22;23050;51.776;22.638;2023-06-01T13:25:23;27.90;1.00
37158;DHT22;23050;51.776;22.638;2023-06-01T13:27:48;28.30;1.00
37158;DHT22;23050;51.776;22.638;2023-06-01T13:30:14;28.00;1.00
37158;DHT22;23050;51.776;22.638;2023-06-01T13:32:39;28.30;1.00
37158;DHT22;23050;51.776;22.638;2023-06-01T13:35:05;28.70;1.00
37158;DHT22;23050;51.776;22.638;2023-06-01T13:37:31;28.60;1.00
37158;DHT22;23050;51.776;22.638;2023-06-01T13:39:57;28.40;1.00
37158;DHT22;23050;51.776;22.638;2023-06-01T13:42:23;28.50;1.00
37158;DHT22;23050;51.776;22.638;2023-06-01T13:44:48;28.30;1.00
37158;DHT22;23050;51.776;22.638;2023-06-01T13:47:14;28.40;1.00
37158;DHT22;23050;51.776;22.638;2023-06-01T13:49:44;28.60;1.00
37158;DHT22;23050;51.776;22.638;2023-06-01T13:52:10;28.90;1.00
37158;DHT22;23050;51.776;22.638;2023-06-01T13:54:36;29.50;1.00
37158;DHT22;23050;51.776;22.638;2023-06-01T13:57:01;29.60;1.00
37158;DHT22;23050;51.776;22.638;2023-06-01T13:59:28;29.80;1.00
37158;DHT22;23050;51.776;22.638;2023-06-01T14:01:59;30.10;1.00
37158;DHT22;23050;51.776;22.638;2023-06-01T14:04:24;29.90;1.00
37158;DHT22;23050;51.776;22.638;2023-06-01T14:06:50;30.10;1.00
37158;DHT22;23050;51.776;22.638;2023-06-01T14:09:18;29.80;1.00
37158;DHT22;23050;51.776;22.638;2023-06-01T14:11:44;29.80;1.00
37158;DHT22;23050;51.776;22.638;2023-06-01T14:14:09;29.90;1.00
37158;DHT22;23050;51.776;22.638;2023-06-01T14:16:35;29.80;1.00
37158;DHT22;23050;51.776;22.638;2023-06-01T14:19:00;29.60;1.00
37158;DHT22;23050;51.776;22.638;2023-06-01T14:21:26;29.70;1.00
37158;DHT22;23050;51.776;22.638;2023-06-01T14:23:52;29.20;1.00
37158;DHT22;23050;51.776;22.638;2023-06-01T14:26:18;29.20;1.00
37158;DHT22;23050;51.776;22.638;2023-06-01T14:28:43;29.20;1.00
37158;DHT22;23050;51.776;22.638;2023-06-01T14:31:08;29.00;1.00
37158;DHT22;23050;51.776;22.638;2023-06-01T14:33:34;28.90;1.00
37158;DHT22;23050;51.776;22.638;2023-06-01T14:35:59;28.80;1.00
37158;DHT22;23050;51.776;22.638;2023-06-01T14:38:25;28.80;1.00
37158;DHT22;23050;51.776;22.638;2023-06-01T14:40:50;28.70;1.00
37158;DHT22;23050;51.776;22.638;2023-06-01T14:43:17;28.60;1.00
37158;DHT22;23050;51.776;22.638;2023-06-01T14:45:42;28.60;1.00
37158;DHT22;23050;51.776;22.638;2023-06-01T14:48:07;28.60;1.00
37158;DHT22;23050;51.776;22.638;2023-06-01T14:50:33;28.60;1.00
37158;DHT22;23050;51.776;22.638;2023-06-01T14:52:58;28.80;1.00
37158;DHT22;23050;51.776;22.638;2023-06-01T14:55:27;28.80;1.00
37158;DHT22;23050;51.776;22.638;2023-06-01T14:57:53;28.50;1.00
37158;DHT22;23050;51.776;22.638;2023-06-01T15:00:18;28.20;1.00
37158;DHT22;23050;51.776;22.638;2023-06-01T15:02:44;27.60;1.00
37158;DHT22;23050;51.776;22.638;2023-06-01T15:05:10;27.40;1.00
37158;DHT22;23050;51.776;22.638;2023-06-01T15:07:36;27.80;1.00
37158;DHT22;23050;51.776;22.638;2023-06-01T15:10:02;28.20;1.00
37158;DHT22;23050;51.776;22.638;2023-06-01T15:12:28;28.30;1.00
37158;DHT22;23050;51.776;22.638;2023-06-01T15:14:53;28.10;1.00
37158;DHT22;23050;51.776;22.638;2023-06-01T15:17:19;28.20;1.00
37158;DHT22;23050;51.776;22.638;2023-06-01T15:19:44;28.00;1.00
37158;DHT22;23050;51.776;22.638;2023-06-01T15:22:10;28.20;1.00
37158;DHT22;23050;51.776;22.638;2023-06-01T15:24:36;28.30;1.00
37158;DHT22;23050;51.776;22.638;2023-06-01T15:27:03;28.40;1.00
37158;DHT22;23050;51.776;22.638;2023-06-01T15:29:28;28.30;1.00
37158;DHT22;23050;51.776;22.638;2023-06-01T15:31:54;28.00;1.00
37158;DHT22;23050;51.776;22.638;2023-06-01T15:34:19;27.70;1.00
37158;DHT22;23050;51.776;22.638;2023-06-01T15:36:45;27.80;1.00
37158;DHT22;23050;51.776;22.638;2023-06-01T15:39:10;27.80;1.00
37158;DHT22;23050;51.776;22.638;2023-06-01T15:41:36;27.70;1.00
37158;DHT22;23050;51.776;22.638;2023-06-01T15:44:01;27.70;1.00
37158;DHT22;23050;51.776;22.638;2023-06-01T15:46:26;27.50;1.00
37158;DHT22;23050;51.776;22.638;2023-06-01T15:48:52;27.60;1.00
37158;DHT22;23050;51.776;22.638;2023-06-01T15:51:17;27.60;1.00
37158;DHT22;23050;51.776;22.638;2023-06-01T15:53:43;27.70;1.00
37158;DHT22;23050;51.776;22.638;2023-06-01T15:56:08;27.40;1.00
37158;DHT22;23050;51.776;22.638;2023-06-01T15:58:34;27.20;1.00